Time;durP1;ratioP1;P1;durP2;ratioP2;P2;SDS_P1;SDS_P2;PMS_P1;PMS_P2;Temp;Humidity;BMP_temperature;BMP_pressure;BME280_temperature;BME280_humidity;BME280_pressure;Samples;Min_cycle;Max_cycle;Signal;HPM_P1;HPM_P2
2023/01/08 00:00:07;;;;;;;115.08;47.83;;;;;;;2.51;83.86;98517.89;1704961;83;25447;-72
2023/01/08 00:02:34;;;;;;;96.02;42.90;;;;;;;2.55;83.71;98510.86;1717122;83;25403;-72
2023/01/08 00:05:00;;;;;;;98.60;43.60;;;;;;;2.51;83.34;98505.71;1704930;83;25586;-66
2023/01/08 00:07:27;;;;;;;91.70;42.20;;;;;;;2.50;83.25;98508.13;1703560;83;27413;-67
2023/01/08 00:09:53;;;;;;;94.75;41.98;;;;;;;2.47;83.21;98502.71;1717124;83;27120;-69
2023/01/08 00:12:20;;;;;;;98.00;45.38;;;;;;;2.44;83.10;98502.41;1681683;83;25724;-67
2023/01/08 00:14:46;;;;;;;99.47;45.17;;;;;;;2.41;83.33;98497.00;1680187;83;25806;-67
2023/01/08 00:17:12;;;;;;;96.42;43.45;;;;;;;2.36;83.34;98500.50;1703789;82;25773;-66
2023/01/08 00:19:40;;;;;;;94.58;44.75;;;;;;;2.30;83.36;98493.98;1680270;83;27364;-70
2023/01/08 00:22:06;;;;;;;100.38;46.60;;;;;;;2.25;83.46;98487.45;1716747;83;25455;-66
2023/01/08 00:24:33;;;;;;;89.55;43.10;;;;;;;2.26;83.76;98489.63;1703713;83;25439;-67
2023/01/08 00:26:59;;;;;;;96.65;43.00;;;;;;;2.24;83.62;98480.44;1705129;83;25696;-68
2023/01/08 00:29:25;;;;;;;95.77;44.03;;;;;;;2.22;83.47;98479.08;1681646;83;25641;-69
2023/01/08 00:31:51;;;;;;;93.40;42.93;;;;;;;2.23;83.65;98476.11;1692053;83;27316;-65
2023/01/08 00:34:18;;;;;;;95.25;42.53;;;;;;;2.23;83.48;98481.52;1704880;83;25965;-67
2023/01/08 00:36:45;;;;;;;97.95;43.95;;;;;;;2.27;83.49;98485.05;1705194;83;25607;-67
2023/01/08 00:39:11;;;;;;;94.92;42.93;;;;;;;2.23;83.35;98484.22;1704177;82;25728;-66
2023/01/08 00:41:37;;;;;;;104.70;45.10;;;;;;;2.20;83.68;98470.41;1703644;83;25491;-68
2023/01/08 00:44:05;;;;;;;102.07;45.98;;;;;;;2.20;84.13;98473.11;1705136;83;28116;-68
2023/01/08 00:46:31;;;;;;;111.30;47.85;;;;;;;2.19;84.41;98474.19;1670101;83;25702;-70
2023/01/08 00:48:57;;;;;;;112.08;48.80;;;;;;;2.16;84.44;98474.72;1691063;83;25880;-65
2023/01/08 00:51:25;;;;;;;105.90;47.43;;;;;;;2.12;84.55;98477.13;1679115;83;26324;-70
2023/01/08 00:53:51;;;;;;;102.20;45.85;;;;;;;2.08;84.30;98470.63;1703949;82;25432;-69
2023/01/08 00:56:17;;;;;;;102.30;44.93;;;;;;;2.03;83.92;98467.35;1705269;83;27338;-67
2023/01/08 00:58:43;;;;;;;106.97;46.45;;;;;;;1.90;83.35;98464.56;1717358;83;25578;-68
2023/01/08 01:01:13;;;;;;;119.62;47.23;;;;;;;1.77;83.61;98463.14;1703596;83;25677;-67
2023/01/08 01:03:39;;;;;;;124.70;48.87;;;;;;;1.64;83.99;98463.04;1717176;83;25828;-68
2023/01/08 01:06:07;;;;;;;119.25;50.30;;;;;;;1.52;84.16;98475.39;1703643;83;25560;-70
2023/01/08 01:08:34;;;;;;;121.72;49.53;;;;;;;1.41;84.13;98471.78;1670229;83;27315;-69
2023/01/08 01:11:06;;;;;;;121.50;49.15;;;;;;;1.39;84.98;98468.55;1681964;83;25390;-70
2023/01/08 01:13:32;;;;;;;108.87;45.48;;;;;;;1.47;85.39;98460.52;1703471;83;25590;-67
2023/01/08 01:16:01;;;;;;;104.25;47.17;;;;;;;1.50;85.88;98460.00;1680348;83;25658;-70
2023/01/08 01:18:29;;;;;;;115.85;48.05;;;;;;;1.52;85.94;98452.43;1729479;82;25649;-69
2023/01/08 01:20:55;;;;;;;105.47;48.55;;;;;;;1.55;86.30;98455.97;1704254;82;28209;-69
2023/01/08 01:23:21;;;;;;;114.67;48.40;;;;;;;1.56;86.44;98459.48;1680103;83;25597;-70
2023/01/08 01:25:48;;;;;;;104.50;46.53;;;;;;;1.57;86.30;98448.42;1692329;83;25505;-68
2023/01/08 01:28:15;;;;;;;115.95;49.75;;;;;;;1.56;86.26;98445.98;1703653;83;26569;-68
2023/01/08 01:30:41;;;;;;;102.65;46.53;;;;;;;1.55;85.91;98441.11;1680627;83;25471;-69
2023/01/08 01:33:07;;;;;;;114.25;49.03;;;;;;;1.56;85.61;98445.98;1670039;83;29154;-67
2023/01/08 01:35:34;;;;;;;108.60;44.70;;;;;;;1.58;85.33;98438.45;1666853;85;25868;-67
2023/01/08 01:38:00;;;;;;;101.27;44.05;;;;;;;1.50;85.30;98435.13;1638941;85;25661;-68
2023/01/08 01:40:26;;;;;;;77.67;36.10;;;;;;;1.46;85.85;98432.69;1661234;85;25798;-68
2023/01/08 01:42:52;;;;;;;70.17;34.58;;;;;;;1.46;86.41;98431.86;1661169;85;25552;-67
2023/01/08 01:45:22;;;;;;;89.22;37.08;;;;;;;1.41;86.55;98422.39;1614266;85;27311;-69
2023/01/08 01:48:02;;;;;;;83.62;39.38;;;;;;;1.38;86.77;98421.00;1660299;85;26095;-69
2023/01/08 01:50:34;;;;;;;79.35;37.38;;;;;;;1.37;86.81;98418.86;1661196;85;25464;-70
2023/01/08 01:53:20;;;;;;;86.02;40.75;;;;;;;1.38;87.04;98421.00;1671009;82;27798;-67
2023/01/08 01:55:47;;;;;;;86.67;38.30;;;;;;;1.41;87.00;98421.83;1731102;82;25455;-69
2023/01/08 01:58:27;;;;;;;90.97;40.63;;;;;;;1.36;86.57;98429.91;1710109;82;28207;-69
2023/01/08 02:00:57;;;;;;;85.80;41.27;;;;;;;1.33;86.43;98425.03;1729694;82;25643;-68
2023/01/08 02:03:27;;;;;;;91.92;40.38;;;;;;;1.35;86.49;98427.73;1734304;82;25698;-70
2023/01/08 02:06:16;;;;;;;90.45;40.10;;;;;;;1.43;86.43;98414.83;1686349;82;25734;-70
2023/01/08 02:09:02;;;;;;;89.00;38.75;;;;;;;1.46;86.14;98417.00;1730725;82;25398;-70
2023/01/08 02:12:15;;;;;;;86.80;40.55;;;;;;;1.48;86.13;98417.57;1730579;82;27483;-68
2023/01/08 02:14:31;;;;;;;84.77;39.20;;;;;;;1.50;86.37;98410.83;1727282;82;25594;-70
2023/01/08 02:17:02;;;;;;;87.70;39.90;;;;;;;1.40;85.35;98411.29;1730939;82;25659;-70
2023/01/08 02:19:41;;;;;;;;;;;;;;;1.25;85.35;98413.64;1711962;82;26487;-69
2023/01/08 02:22:42;;;;;;;93.47;40.17;;;;;;;1.20;85.18;98411.42;1710216;82;25635;-66
2023/01/08 02:25:46;;;;;;;78.95;36.93;;;;;;;1.12;85.34;98409.48;1709432;82;27370;-69
2023/01/08 02:28:14;;;;;;;85.03;39.55;;;;;;;1.11;85.55;98403.81;1734231;82;25551;-74
2023/01/08 02:30:42;;;;;;;93.90;40.48;;;;;;;1.04;85.00;98405.92;1662352;82;25674;-72
2023/01/08 02:33:08;;;;;;;89.13;39.70;;;;;;;0.93;85.09;98400.96;1640327;82;25848;-72
2023/01/08 02:35:56;;;;;;;88.90;41.40;;;;;;;0.82;85.25;98404.62;1685177;82;25668;-72
2023/01/08 02:38:23;;;;;;;89.52;42.50;;;;;;;0.79;85.78;98407.31;1709986;82;27282;-73
2023/01/08 02:41:04;;;;;;;94.65;42.90;;;;;;;0.72;85.37;98399.41;1709684;82;25779;-72
2023/01/08 02:43:47;;;;;;;95.60;43.98;;;;;;;0.59;85.20;98402.52;1708481;82;25457;-73
2023/01/08 02:46:18;;;;;;;117.33;52.75;;;;;;;0.48;85.39;98405.64;1730682;82;26704;-71
2023/01/08 02:48:52;;;;;;;97.08;43.83;;;;;;;0.41;85.69;98413.94;1731223;82;25434;-65
2023/01/08 02:51:30;;;;;;;86.37;41.65;;;;;;;0.29;85.47;98410.01;1731033;82;28025;-73
2023/01/08 02:54:02;;;;;;;92.10;45.03;;;;;;;0.22;85.83;98406.18;1721149;82;27141;-69
2023/01/08 02:56:33;;;;;;;98.07;43.87;;;;;;;0.29;85.96;98407.87;1715186;82;26372;-67
2023/01/08 02:59:01;;;;;;;92.78;44.60;;;;;;;0.29;85.67;98403.83;1715177;83;25746;-71
2023/01/08 03:01:29;;;;;;;98.25;44.83;;;;;;;0.31;86.33;98401.67;1669752;83;25625;-69
2023/01/08 03:04:09;;;;;;;108.35;49.38;;;;;;;0.35;86.31;98392.03;1668596;83;27107;-69
2023/01/08 03:06:37;;;;;;;92.97;44.35;;;;;;;0.35;86.02;98388.78;1694795;83;27256;-72
2023/01/08 03:09:04;;;;;;;107.35;46.35;;;;;;;0.38;86.03;98392.87;1715010;83;25605;-71
2023/01/08 03:11:59;;;;;;;88.52;42.50;;;;;;;0.40;85.70;98393.42;1669454;83;25632;-71
2023/01/08 03:14:42;;;;;;;78.83;37.10;;;;;;;0.39;85.59;98381.55;1692210;83;25746;-72
2023/01/08 03:17:32;;;;;;;49.88;24.95;;;;;;;0.39;86.01;98372.93;1692845;83;27366;-73
2023/01/08 03:20:09;;;;;;;61.77;27.95;;;;;;;0.50;87.95;98379.25;1692718;83;25490;-74
2023/01/08 03:22:39;;;;;;;46.58;22.95;;;;;;;0.65;88.99;98384.50;1692843;83;25429;-72
2023/01/08 03:25:08;;;;;;;48.60;24.35;;;;;;;0.67;88.86;98378.33;1693048;83;26970;-71
2023/01/08 03:27:39;;;;;;;60.45;27.77;;;;;;;0.71;90.47;98376.73;1693058;83;25746;-69
2023/01/08 03:30:08;;;;;;;61.28;29.18;;;;;;;0.77;90.44;98374.92;1692742;83;27379;-73
2023/01/08 03:32:38;;;;;;;59.83;31.27;;;;;;;0.81;89.34;98384.92;1715020;83;25653;-72
2023/01/08 03:35:09;;;;;;;55.80;29.42;;;;;;;0.84;88.69;98388.45;1693119;83;25656;-72
2023/01/08 03:37:38;;;;;;;;;;;;;;;0.89;88.54;98382.29;1719472;83;26549;-73
2023/01/08 03:40:18;;;;;;;73.25;33.83;;;;;;;0.95;88.25;98380.47;1715313;83;25695;-72
2023/01/08 03:42:45;;;;;;;68.25;32.03;;;;;;;0.95;87.68;98386.66;1714990;83;27355;-73
2023/01/08 03:45:11;;;;;;;66.95;31.65;;;;;;;0.97;87.42;98382.36;1692883;83;25445;-72
2023/01/08 03:47:39;;;;;;;68.07;33.65;;;;;;;0.96;87.35;98379.39;1692925;83;25557;-72
2023/01/08 03:50:10;;;;;;;68.75;31.80;;;;;;;0.95;86.85;98377.22;1691931;83;25759;-72
2023/01/08 03:52:36;;;;;;;63.85;31.23;;;;;;;0.84;86.30;98386.31;1715284;83;25664;-73
2023/01/08 03:55:04;;;;;;;71.05;32.10;;;;;;;0.72;86.53;98385.13;1694423;83;27478;-73
2023/01/08 03:57:31;;;;;;;69.47;34.10;;;;;;;0.70;86.72;98388.61;1672582;84;25702;-73
2023/01/08 03:59:57;;;;;;;81.42;36.33;;;;;;;0.72;86.82;98391.88;1669254;83;25577;-73
2023/01/08 04:02:25;;;;;;;67.92;32.48;;;;;;;0.72;86.62;98376.48;1691590;84;25712;-71
2023/01/08 04:04:59;;;;;;;63.25;31.82;;;;;;;0.74;86.59;98373.00;1645252;83;25502;-72
2023/01/08 04:07:29;;;;;;;63.87;29.87;;;;;;;0.69;85.96;98372.16;1697277;83;27488;-74
2023/01/08 04:09:56;;;;;;;47.95;25.45;;;;;;;0.59;86.22;98364.23;1707908;83;25670;-71
2023/01/08 04:12:26;;;;;;;51.60;23.65;;;;;;;0.57;87.18;98360.97;1638515;83;25697;-68
2023/01/08 04:15:00;;;;;;;55.38;28.07;;;;;;;0.59;88.72;98357.50;1711468;83;25694;-67
2023/01/08 04:17:27;;;;;;;63.73;28.70;;;;;;;0.65;88.86;98365.62;1686072;83;25643;-71
2023/01/08 04:19:58;;;;;;;63.52;30.32;;;;;;;0.62;87.89;98363.73;1660969;83;27198;-71
2023/01/08 04:22:24;;;;;;;65.40;31.60;;;;;;;0.57;87.81;98358.80;1662168;83;32972;-67
2023/01/08 04:24:50;;;;;;;41.75;22.20;;;;;;;0.56;88.08;98359.36;1661842;83;25650;-73
2023/01/08 04:27:16;;;;;;;56.37;28.60;;;;;;;0.60;89.14;98351.55;1638579;83;25455;-73
2023/01/08 04:29:42;;;;;;;56.18;27.35;;;;;;;0.69;89.28;98353.27;1667136;83;26387;-73
2023/01/08 04:32:08;;;;;;;50.35;26.05;;;;;;;0.74;88.97;98347.91;1689690;83;28097;-71
2023/01/08 04:34:35;;;;;;;61.80;30.17;;;;;;;0.78;88.92;98353.61;1661156;83;26234;-68
2023/01/08 04:37:01;;;;;;;54.98;27.60;;;;;;;0.83;88.39;98342.84;1662208;83;25671;-73
2023/01/08 04:39:28;;;;;;;38.63;19.82;;;;;;;0.88;88.51;98344.25;1640238;83;25911;-73
2023/01/08 04:41:54;;;;;;;46.48;23.90;;;;;;;0.90;88.69;98339.95;1662439;83;25484;-73
2023/01/08 04:44:20;;;;;;;55.88;28.32;;;;;;;0.94;89.06;98345.09;1661823;83;27477;-74
2023/01/08 04:46:46;;;;;;;65.42;33.00;;;;;;;0.97;88.63;98340.53;1642559;83;25653;-74
2023/01/08 04:49:13;;;;;;;68.72;32.58;;;;;;;0.91;87.64;98350.48;1685021;83;25438;-73
2023/01/08 04:51:39;;;;;;;69.32;34.38;;;;;;;0.81;86.90;98354.45;1685070;83;25783;-73
2023/01/08 04:54:05;;;;;;;71.15;35.30;;;;;;;0.70;86.67;98355.71;1660965;83;26360;-73
2023/01/08 04:56:32;;;;;;;80.40;35.00;;;;;;;0.70;86.72;98355.71;1681462;82;27098;-72
2023/01/08 04:58:58;;;;;;;75.75;38.45;;;;;;;0.73;86.57;98357.91;1709228;82;25691;-71
2023/01/08 05:01:27;;;;;;;83.45;38.08;;;;;;;0.76;86.63;98351.17;1733922;82;25485;-72
2023/01/08 05:03:59;;;;;;;80.03;38.67;;;;;;;0.70;85.93;98358.94;1704475;82;25506;-73
2023/01/08 05:06:28;;;;;;;85.25;38.98;;;;;;;0.57;85.71;98348.02;1704729;82;25655;-71
2023/01/08 05:08:54;;;;;;;94.15;43.23;;;;;;;0.49;85.83;98337.98;1705403;82;27374;-71
2023/01/08 05:11:20;;;;;;;88.22;43.65;;;;;;;0.42;85.35;98341.95;1709133;82;25662;-73
2023/01/08 05:13:48;;;;;;;100.40;45.03;;;;;;;0.31;85.48;98335.11;1704599;82;25788;-73
2023/01/08 05:16:15;;;;;;;107.25;44.70;;;;;;;0.22;85.57;98329.89;1704894;82;25702;-73
2023/01/08 05:18:41;;;;;;;99.70;40.88;;;;;;;0.12;85.46;98323.32;1681728;82;25450;-73
2023/01/08 05:21:08;;;;;;;122.80;46.30;;;;;;;0.05;85.88;98330.80;1681612;82;27360;-73
2023/01/08 05:23:34;;;;;;;128.47;46.10;;;;;;;0.05;86.09;98332.14;1703644;82;25683;-74
2023/01/08 05:26:04;;;;;;;131.82;47.30;;;;;;;-0.02;85.94;98323.45;1733547;82;25675;-73
2023/01/08 05:28:31;;;;;;;118.25;46.20;;;;;;;-0.08;86.18;98324.45;1681772;82;25702;-73
2023/01/08 05:30:57;;;;;;;95.12;39.35;;;;;;;-0.16;86.39;98316.28;1703739;82;25482;-73
2023/01/08 05:33:24;;;;;;;85.47;37.78;;;;;;;-0.15;86.99;98306.60;1680150;82;27620;-72
2023/01/08 05:35:50;;;;;;;59.58;28.15;;;;;;;-0.09;87.22;98302.08;1708896;82;25507;-73
2023/01/08 05:38:17;;;;;;;64.85;29.05;;;;;;;0.04;88.39;98308.15;1704864;82;25740;-73
2023/01/08 05:40:43;;;;;;;66.75;32.00;;;;;;;0.14;88.68;98315.54;1704521;82;25619;-72
2023/01/08 05:43:10;;;;;;;58.80;29.30;;;;;;;0.15;88.22;98318.50;1681458;82;25442;-72
2023/01/08 05:45:36;;;;;;;54.40;25.62;;;;;;;0.14;87.98;98313.64;1705182;82;28264;-72
2023/01/08 05:48:06;;;;;;;59.13;28.07;;;;;;;0.21;88.68;98314.27;1704879;82;25983;-73
2023/01/08 05:50:34;;;;;;;54.93;28.73;;;;;;;0.24;88.39;98319.68;1704780;82;25422;-73
2023/01/08 05:53:00;;;;;;;66.07;31.40;;;;;;;0.24;88.02;98321.03;1681440;82;25602;-71
2023/01/08 05:55:26;;;;;;;52.00;26.57;;;;;;;0.20;87.72;98324.75;1704872;82;25485;-70
2023/01/08 05:57:52;;;;;;;68.42;33.65;;;;;;;0.21;87.90;98318.84;1703522;82;27504;-73
2023/01/08 06:00:19;;;;;;;56.42;28.20;;;;;;;0.28;88.32;98317.27;1709004;82;26196;-73
2023/01/08 06:02:47;;;;;;;61.65;28.55;;;;;;;0.35;88.36;98311.17;1704710;82;25609;-72
2023/01/08 06:05:13;;;;;;;55.90;28.95;;;;;;;0.29;87.51;98310.84;1680206;82;25946;-72
2023/01/08 06:07:39;;;;;;;50.17;24.60;;;;;;;0.22;87.48;98310.50;1681478;82;25607;-72
2023/01/08 06:10:07;;;;;;;40.92;21.70;;;;;;;0.14;87.35;98308.25;1680286;82;28255;-71
2023/01/08 06:12:33;;;;;;;58.38;27.60;;;;;;;0.02;87.52;98305.70;1680279;82;25692;-73
2023/01/08 06:14:59;;;;;;;52.60;26.55;;;;;;;0.01;88.18;98296.00;1681076;82;25818;-72
2023/01/08 06:17:26;;;;;;;55.70;26.68;;;;;;;0.03;88.69;98297.89;1705017;82;26455;-72
2023/01/08 06:19:52;;;;;;;52.50;27.25;;;;;;;0.09;88.92;98294.74;1679842;82;25646;-72
2023/01/08 06:22:18;;;;;;;53.28;27.02;;;;;;;0.18;88.95;98295.91;1704883;82;27691;-73
2023/01/08 06:24:44;;;;;;;53.65;28.12;;;;;;;0.23;88.52;98292.46;1704826;82;25557;-71
2023/01/08 06:27:10;;;;;;;64.67;29.90;;;;;;;0.24;88.34;98286.81;1705161;82;25674;-72
2023/01/08 06:29:36;;;;;;;53.20;27.80;;;;;;;0.19;87.70;98294.84;1709410;82;26471;-72
2023/01/08 06:32:02;;;;;;;49.40;26.20;;;;;;;0.13;87.53;98291.81;1681675;82;25731;-71
2023/01/08 06:34:29;;;;;;;55.78;28.55;;;;;;;0.15;88.06;98295.59;1680004;82;28447;-71
2023/01/08 06:36:55;;;;;;;56.85;27.85;;;;;;;0.16;88.03;98298.56;1703351;82;25446;-71
2023/01/08 06:39:21;;;;;;;56.35;27.13;;;;;;;0.18;88.33;98293.22;1680359;82;25499;-72
2023/01/08 06:41:47;;;;;;;61.75;32.45;;;;;;;0.23;88.21;98293.80;1680055;82;26574;-72
2023/01/08 06:44:13;;;;;;;65.20;32.25;;;;;;;0.19;87.64;98288.63;1681682;82;25688;-72
2023/01/08 06:46:43;;;;;;;63.65;31.82;;;;;;;0.13;87.45;98286.42;1680010;82;27536;-72
2023/01/08 06:49:18;;;;;;;54.53;27.20;;;;;;;0.11;87.77;98284.50;1704561;82;25672;-72
2023/01/08 06:51:51;;;;;;;53.38;27.52;;;;;;;0.19;88.07;98280.54;1705685;82;25728;-72
2023/01/08 06:54:16;;;;;;;57.35;29.50;;;;;;;0.23;88.41;98277.64;1681578;82;25485;-71
2023/01/08 06:56:42;;;;;;;51.77;25.17;;;;;;;0.27;88.36;98283.31;1704676;82;25468;-72
2023/01/08 06:59:08;;;;;;;48.15;25.40;;;;;;;0.29;88.43;98283.88;1733703;82;27446;-71
2023/01/08 07:01:34;;;;;;;55.17;25.57;;;;;;;0.32;88.62;98292.25;1681011;82;27055;-71
2023/01/08 07:04:01;;;;;;;54.42;25.48;;;;;;;0.34;88.74;98287.43;1733863;82;25740;-70
2023/01/08 07:06:27;;;;;;;47.90;25.43;;;;;;;0.37;88.69;98288.79;1680230;82;25781;-70
2023/01/08 07:08:53;;;;;;;39.65;20.90;;;;;;;0.40;88.97;98283.45;1680223;82;25601;-71
2023/01/08 07:11:20;;;;;;;36.83;18.80;;;;;;;0.46;89.95;98279.73;1704830;82;27424;-71
2023/01/08 07:13:46;;;;;;;42.55;22.00;;;;;;;0.53;90.38;98281.67;1733411;82;25461;-71
2023/01/08 07:16:14;;;;;;;31.75;17.62;;;;;;;0.56;90.00;98271.72;1733542;82;25645;-70
2023/01/08 07:18:41;;;;;;;49.60;26.10;;;;;;;0.61;90.43;98265.00;1681057;82;25687;-71
2023/01/08 07:21:08;;;;;;;50.15;26.73;;;;;;;0.70;90.01;98272.10;1709298;82;25664;-70
2023/01/08 07:23:35;;;;;;;49.90;26.17;;;;;;;0.81;89.82;98268.13;1704590;82;28042;-71
2023/01/08 07:26:06;;;;;;;47.85;25.82;;;;;;;0.93;89.68;98263.88;1706730;82;25711;-69
2023/01/08 07:28:32;;;;;;;51.15;25.27;;;;;;;1.03;89.51;98261.80;1713925;82;25780;-71
2023/01/08 07:31:05;;;;;;;49.63;24.52;;;;;;;1.13;89.56;98264.55;1704698;82;25782;-70
2023/01/08 07:33:31;;;;;;;49.67;24.47;;;;;;;1.19;89.38;98265.39;1715581;82;25736;-71
2023/01/08 07:35:57;;;;;;;51.92;26.02;;;;;;;1.23;88.83;98271.87;1715666;82;27100;-69
2023/01/08 07:38:24;;;;;;;41.28;20.20;;;;;;;1.29;88.68;98270.05;1715335;82;25657;-71
2023/01/08 07:40:50;;;;;;;41.42;21.42;;;;;;;1.34;88.29;98255.20;1715784;82;25614;-71
2023/01/08 07:43:17;;;;;;;48.28;25.32;;;;;;;1.43;88.31;98270.36;1691789;82;25466;-71
2023/01/08 07:45:43;;;;;;;48.20;25.25;;;;;;;1.53;88.13;98263.67;1691587;82;25752;-70
2023/01/08 07:48:14;;;;;;;42.65;21.90;;;;;;;1.68;88.17;98258.05;1715312;82;27481;-71
2023/01/08 07:50:39;;;;;;;35.23;18.92;;;;;;;1.75;87.81;98251.31;1714643;82;25697;-71
2023/01/08 07:53:05;;;;;;;44.42;24.15;;;;;;;1.83;87.87;98243.23;1743333;81;25420;-70
2023/01/08 07:55:32;;;;;;;48.68;24.60;;;;;;;1.94;87.72;98244.08;1725600;81;25656;-71
2023/01/08 07:57:59;;;;;;;47.23;24.45;;;;;;;2.10;87.94;98238.14;1673850;83;25785;-70
2023/01/08 08:00:26;;;;;;;39.75;21.90;;;;;;;2.22;87.53;98243.85;1703955;83;27291;-70
2023/01/08 08:02:52;;;;;;;49.35;24.63;;;;;;;2.27;86.85;98247.10;1695618;83;25690;-69
2023/01/08 08:05:19;;;;;;;46.20;24.77;;;;;;;2.30;86.73;98246.00;1669363;84;25707;-70
2023/01/08 08:07:45;;;;;;;34.20;18.17;;;;;;;2.31;86.46;98236.01;1692408;83;25811;-70
2023/01/08 08:10:12;;;;;;;45.73;24.85;;;;;;;2.35;86.23;98239.79;1665828;84;25661;-70
2023/01/08 08:12:38;;;;;;;37.58;20.88;;;;;;;2.33;86.21;98239.27;1694507;83;28006;-70
2023/01/08 08:15:07;;;;;;;44.23;22.87;;;;;;;2.31;86.22;98233.31;1642302;83;25689;-70
2023/01/08 08:17:33;;;;;;;45.30;24.32;;;;;;;2.31;86.33;98239.53;1688269;83;25620;-69
2023/01/08 08:19:59;;;;;;;49.05;24.85;;;;;;;2.31;86.36;98231.95;1689019;83;25762;-70
2023/01/08 08:22:26;;;;;;;40.83;22.85;;;;;;;2.26;86.21;98235.47;1665934;83;25613;-70
2023/01/08 08:24:52;;;;;;;41.25;23.60;;;;;;;2.22;85.94;98231.13;1689004;83;27616;-70
2023/01/08 08:27:18;;;;;;;45.38;23.75;;;;;;;2.22;85.88;98234.39;1662051;83;25608;-68
2023/01/08 08:29:44;;;;;;;47.38;24.60;;;;;;;2.21;85.84;98231.39;1666005;83;25640;-69
2023/01/08 08:32:10;;;;;;;42.90;24.60;;;;;;;2.22;85.87;98233.83;1688135;83;25750;-70
2023/01/08 08:34:36;;;;;;;48.50;25.95;;;;;;;2.22;85.45;98238.45;1670853;83;25577;-70
2023/01/08 08:37:03;;;;;;;47.43;24.92;;;;;;;2.25;85.93;98233.85;1692203;83;26685;-69
2023/01/08 08:39:29;;;;;;;44.35;24.65;;;;;;;2.32;85.96;98233.56;1666162;83;25873;-70
2023/01/08 08:41:55;;;;;;;48.23;25.48;;;;;;;2.40;86.07;98229.52;1666419;83;25795;-70
2023/01/08 08:44:22;;;;;;;42.83;23.35;;;;;;;2.47;86.18;98225.46;1688786;83;25621;-70
2023/01/08 08:46:48;;;;;;;43.48;22.98;;;;;;;2.53;85.85;98218.71;1692035;84;25596;-70
2023/01/08 08:49:15;;;;;;;44.03;24.05;;;;;;;2.58;85.75;98222.22;1685341;83;27558;-71
2023/01/08 08:51:42;;;;;;;43.55;23.45;;;;;;;2.63;85.60;98221.41;1639730;83;25623;-71
2023/01/08 08:54:10;;;;;;;39.80;21.30;;;;;;;2.67;85.32;98221.12;1668457;84;25488;-70
2023/01/08 08:56:37;;;;;;;41.63;22.15;;;;;;;2.70;84.98;98212.99;1705592;81;25696;-71
2023/01/08 08:59:04;;;;;;;55.12;28.02;;;;;;;2.72;84.91;98206.78;1659873;81;25447;-71
2023/01/08 09:01:31;;;;;;;45.45;24.27;;;;;;;2.85;85.44;98216.24;1659721;81;28124;-71
2023/01/08 09:03:58;;;;;;;37.88;19.50;;;;;;;2.98;85.43;98215.66;1696909;82;25691;-71
2023/01/08 09:06:26;;;;;;;36.65;20.02;;;;;;;3.04;84.31;98210.22;1691807;82;25632;-71
2023/01/08 09:08:53;;;;;;;39.15;21.27;;;;;;;3.09;84.67;98204.27;1692485;82;25660;-70
2023/01/08 09:11:20;;;;;;;37.70;19.87;;;;;;;3.16;84.64;98197.76;1669336;82;25627;-71
2023/01/08 09:13:48;;;;;;;34.33;19.17;;;;;;;3.16;84.02;98197.76;1715647;82;27454;-71
2023/01/08 09:16:14;;;;;;;33.20;18.40;;;;;;;3.20;84.29;98192.05;1716619;82;25758;-71
2023/01/08 09:18:40;;;;;;;43.45;23.90;;;;;;;3.25;84.36;98195.54;1717455;82;25560;-71
2023/01/08 09:21:07;;;;;;;42.60;22.77;;;;;;;3.35;84.21;98192.52;1692199;82;25785;-71
2023/01/08 09:23:34;;;;;;;40.73;23.40;;;;;;;3.41;83.92;98198.19;1715572;82;25810;-71
2023/01/08 09:26:03;;;;;;;46.08;24.23;;;;;;;3.50;84.12;98181.63;1668915;82;27491;-69
2023/01/08 09:28:30;;;;;;;40.03;22.62;;;;;;;3.72;84.03;98191.80;1715813;82;25805;-71
2023/01/08 09:30:58;;;;;;;42.78;24.27;;;;;;;3.99;83.99;98176.45;1717252;82;25602;-71
2023/01/08 09:33:24;;;;;;;43.68;23.12;;;;;;;4.35;83.53;98173.20;1693298;82;25758;-71
2023/01/08 09:35:51;;;;;;;39.33;22.58;;;;;;;4.73;83.17;98163.08;1717070;82;25414;-71
2023/01/08 09:38:17;;;;;;;39.55;24.25;;;;;;;5.00;81.06;98163.05;1646920;82;27307;-68
2023/01/08 09:40:57;;;;;;;37.55;21.12;;;;;;;5.20;80.54;98151.69;1691831;82;25794;-70
2023/01/08 09:43:27;;;;;;;33.00;18.87;;;;;;;5.59;81.43;98151.20;1736086;82;25488;-71
2023/01/08 09:45:57;;;;;;;41.02;24.30;;;;;;;5.69;78.09;98144.80;1717053;82;25745;-70
2023/01/08 09:48:28;;;;;;;41.68;23.90;;;;;;;5.59;78.61;98136.25;1742496;82;25438;-70
2023/01/08 09:50:55;;;;;;;40.85;24.37;;;;;;;5.68;78.46;98133.13;1717614;82;28060;-68
2023/01/08 09:53:21;;;;;;;33.08;19.17;;;;;;;5.69;78.38;98121.14;1715266;82;25662;-71
2023/01/08 09:55:59;;;;;;;40.95;23.25;;;;;;;5.82;77.87;98114.71;1710837;82;25489;-69
2023/01/08 09:58:51;;;;;;;43.80;25.60;;;;;;;5.84;77.65;98111.94;1700133;83;25723;-70
2023/01/08 10:01:25;;;;;;;42.25;21.65;;;;;;;5.82;77.03;98102.47;1672074;83;25656;-69
2023/01/08 10:04:18;;;;;;;47.93;25.80;;;;;;;5.71;77.39;98096.38;1670576;83;27344;-71
2023/01/08 10:06:51;;;;;;;50.73;26.45;;;;;;;5.56;77.93;98087.91;1692938;83;25784;-70
2023/01/08 10:09:28;;;;;;;50.40;28.17;;;;;;;5.61;78.19;98087.81;1715039;83;25722;-70
2023/01/08 10:11:59;;;;;;;51.40;28.80;;;;;;;5.59;78.69;98092.76;1693008;83;25596;-70
2023/01/08 10:14:38;;;;;;;51.63;29.90;;;;;;;5.72;79.78;98087.11;1670596;83;25611;-70
2023/01/08 10:17:30;;;;;;;58.15;30.25;;;;;;;5.90;79.87;98082.75;1715031;82;27493;-71
2023/01/08 10:19:56;;;;;;;66.17;34.95;;;;;;;6.07;79.80;98074.64;1692926;83;25435;-70
2023/01/08 10:22:28;;;;;;;64.10;34.92;;;;;;;6.14;79.13;98075.84;1693157;83;25671;-70
2023/01/08 10:24:59;;;;;;;58.95;32.38;;;;;;;6.20;78.90;98066.25;1670230;83;25794;-70
2023/01/08 10:27:27;;;;;;;70.47;37.08;;;;;;;6.26;78.63;98067.23;1691923;83;25721;-70
2023/01/08 10:29:58;;;;;;;66.33;35.17;;;;;;;6.37;78.55;98064.31;1692528;83;27310;-71
2023/01/08 10:32:33;;;;;;;69.37;36.55;;;;;;;6.44;78.09;98066.08;1713584;83;25742;-70
2023/01/08 10:35:06;;;;;;;57.23;31.93;;;;;;;6.58;78.72;98060.65;1715282;83;25680;-70
2023/01/08 10:37:39;;;;;;;68.57;37.23;;;;;;;6.77;78.47;98069.28;1692757;83;25678;-70
2023/01/08 10:40:29;;;;;;;49.90;27.52;;;;;;;6.87;77.89;98067.70;1716296;82;25426;-70
2023/01/08 10:43:07;;;;;;;45.63;25.60;;;;;;;6.88;77.02;98076.12;1715579;83;27452;-71
2023/01/08 10:45:33;;;;;;;45.55;26.27;;;;;;;6.87;77.41;98076.42;1692854;83;25695;-68
2023/01/08 10:48:04;;;;;;;42.73;23.18;;;;;;;7.04;77.56;98063.55;1669737;83;25734;-71
2023/01/08 10:50:33;;;;;;;42.20;23.67;;;;;;;7.39;78.20;98061.16;1693063;83;35117;-71
2023/01/08 10:53:04;;;;;;;43.75;25.00;;;;;;;7.74;76.59;98059.81;1692861;83;25631;-68
2023/01/08 10:55:34;;;;;;;;;;;;;;;7.94;76.31;98051.69;1717630;82;27376;-68
2023/01/08 10:58:12;;;;;;;51.40;26.40;;;;;;;8.20;76.07;98050.25;1693269;83;25651;-71
2023/01/08 11:00:38;;;;;;;50.88;28.80;;;;;;;8.49;74.60;98043.48;1715325;83;25620;-68
2023/01/08 11:03:22;;;;;;;89.28;44.30;;;;;;;8.99;75.41;98027.90;1647182;83;25790;-68
2023/01/08 11:05:48;;;;;;;101.85;46.20;;;;;;;9.29;71.43;98036.29;1692544;83;25481;-71
2023/01/08 11:08:21;;;;;;;84.60;41.05;;;;;;;9.33;72.61;98033.73;1668146;83;27583;-70
2023/01/08 11:10:57;;;;;;;87.53;40.55;;;;;;;9.43;71.76;98029.30;1692678;83;26129;-70
2023/01/08 11:13:25;;;;;;;82.50;39.90;;;;;;;9.56;70.90;98018.53;1692035;83;25534;-70
2023/01/08 11:16:09;;;;;;;63.48;35.85;;;;;;;9.62;71.96;98018.02;1669777;83;26055;-71
2023/01/08 11:18:46;;;;;;;66.62;38.80;;;;;;;9.74;69.87;98015.20;1715080;83;25747;-70
2023/01/08 11:21:32;;;;;;;68.90;37.85;;;;;;;9.72;71.32;98011.98;1688309;83;27453;-70
2023/01/08 11:24:20;;;;;;;96.75;52.03;;;;;;;9.82;70.50;98021.25;1671093;83;25662;-70
2023/01/08 11:27:10;;;;;;;79.27;43.35;;;;;;;10.17;70.75;98013.51;1692617;83;25635;-70
2023/01/08 11:29:48;;;;;;;68.70;39.20;;;;;;;10.17;70.75;98013.51;1715742;83;25760;-71
2023/01/08 11:32:35;;;;;;;67.53;39.20;;;;;;;10.43;68.49;98005.76;1692770;83;25421;-70
2023/01/08 11:35:22;;;;;;;83.80;47.20;;;;;;;10.61;69.16;98006.51;1692531;83;27567;-71